Time;durP1;ratioP1;P1;durP2;ratioP2;P2;SDS_P1;SDS_P2;PMS_P1;PMS_P2;Temp;Humidity;BMP_temperature;BMP_pressure;BME280_temperature;BME280_humidity;BME280_pressure;Samples;Min_cycle;Max_cycle;Signal;HPM_P1;HPM_P2
2021/03/07 00:00:15;;;;;;;32.83;20.40;;;2.90;80.50;;;;;;5086932;28;20053;-75
2021/03/07 00:02:41;;;;;;;38.13;22.17;;;2.70;79.70;;;;;;5090782;28;20024;-74
2021/03/07 00:05:09;;;;;;;31.90;19.80;;;2.60;80.20;;;;;;5087278;28;20028;-76
2021/03/07 00:07:35;;;;;;;18.40;11.43;;;2.70;80.90;;;;;;5086103;28;20355;-74
2021/03/07 00:10:04;;;;;;;22.07;14.07;;;2.50;79.30;;;;;;5089938;28;20486;-74
2021/03/07 00:12:30;;;;;;;31.73;20.13;;;2.30;79.70;;;;;;5090781;28;20097;-74
2021/03/07 00:14:55;;;;;;;26.97;17.33;;;2.20;80.90;;;;;;5090583;28;20036;-74
2021/03/07 00:17:21;;;;;;;30.83;18.40;;;2.30;81.10;;;;;;5089856;28;20369;-74
2021/03/07 00:19:47;;;;;;;31.13;18.50;;;2.30;81.60;;;;;;5091587;28;20349;-74
2021/03/07 00:22:12;;;;;;;20.10;12.27;;;2.40;82.20;;;;;;5085753;28;20077;-75
2021/03/07 00:24:38;;;;;;;15.63;10.87;;;2.40;81.90;;;;;;5084167;28;20060;-74
2021/03/07 00:27:04;;;;;;;15.77;9.97;;;2.10;80.60;;;;;;5071016;28;21281;-74
2021/03/07 00:29:29;;;;;;;17.03;12.23;;;1.90;80.60;;;;;;5089687;28;20031;-74
2021/03/07 00:31:55;;;;;;;24.30;16.60;;;1.80;81.10;;;;;;5086580;28;20024;-74
2021/03/07 00:34:21;;;;;;;21.87;11.50;;;1.90;82.40;;;;;;5089698;28;20028;-74
2021/03/07 00:36:46;;;;;;;24.03;16.23;;;2.00;82.70;;;;;;5071426;28;20033;-74
2021/03/07 00:39:12;;;;;;;26.97;16.10;;;2.00;83.20;;;;;;5085431;28;20028;-76
2021/03/07 00:41:38;;;;;;;21.23;14.50;;;2.10;83.90;;;;;;5090914;28;20016;-75
2021/03/07 00:44:09;;;;;;;22.63;14.60;;;2.20;84.00;;;;;;5089299;28;20085;-75
2021/03/07 00:46:43;;;;;;;23.20;14.70;;;2.30;84.00;;;;;;5089547;28;20048;-74
2021/03/07 00:49:09;;;;;;;23.07;13.80;;;2.40;83.80;;;;;;5091685;28;20016;-75
2021/03/07 00:51:35;;;;;;;20.83;12.43;;;2.50;83.80;;;;;;5089079;28;20024;-75
2021/03/07 00:54:01;;;;;;;26.37;15.03;;;2.40;83.20;;;;;;5052793;28;20029;-75
2021/03/07 00:56:27;;;;;;;23.73;14.07;;;2.40;83.10;;;;;;5088246;28;20040;-75
2021/03/07 00:58:52;;;;;;;21.50;13.70;;;2.40;83.70;;;;;;5069684;28;20027;-75
2021/03/07 01:01:18;;;;;;;20.57;12.83;;;2.50;83.80;;;;;;5054341;28;20032;-75
2021/03/07 01:03:44;;;;;;;20.50;12.23;;;2.50;83.80;;;;;;5089948;28;20478;-75
2021/03/07 01:06:10;;;;;;;21.30;12.83;;;2.50;83.50;;;;;;5089866;28;20466;-75
2021/03/07 01:08:36;;;;;;;17.53;11.83;;;2.50;83.80;;;;;;5088953;28;20141;-76
2021/03/07 01:11:02;;;;;;;17.07;11.80;;;2.50;83.90;;;;;;5089420;28;20375;-74
2021/03/07 01:13:28;;;;;;;17.17;11.47;;;2.50;83.90;;;;;;5066235;28;20041;-75
2021/03/07 01:15:53;;;;;;;17.63;11.13;;;2.50;83.50;;;;;;5090151;28;20031;-74
2021/03/07 01:18:19;;;;;;;17.97;11.50;;;2.40;83.30;;;;;;5074359;28;20024;-75
2021/03/07 01:20:46;;;;;;;17.60;11.33;;;2.30;83.30;;;;;;5080424;28;20040;-74
2021/03/07 01:23:18;;;;;;;19.70;10.80;;;2.30;83.90;;;;;;5074854;28;20024;-74
2021/03/07 01:25:43;;;;;;;16.83;10.80;;;2.30;84.10;;;;;;5090635;28;20059;-75
2021/03/07 01:28:09;;;;;;;19.10;11.83;;;2.30;84.20;;;;;;5090509;28;20047;-75
2021/03/07 01:30:38;;;;;;;17.27;10.93;;;2.40;84.50;;;;;;5085495;28;20111;-76
2021/03/07 01:33:05;;;;;;;15.93;10.40;;;2.40;84.40;;;;;;5090241;28;20024;-75
2021/03/07 01:35:31;;;;;;;15.23;10.13;;;2.40;84.70;;;;;;5091336;28;20059;-75
2021/03/07 01:37:57;;;;;;;18.20;10.03;;;2.40;84.80;;;;;;5073355;28;20017;-74
2021/03/07 01:40:27;;;;;;;17.33;9.63;;;2.40;84.30;;;;;;5093293;28;20122;-75
2021/03/07 01:42:55;;;;;;;17.57;10.87;;;2.30;84.20;;;;;;5092676;28;20028;-75
2021/03/07 01:45:21;;;;;;;16.93;10.27;;;2.20;85.00;;;;;;5092780;28;20028;-76
2021/03/07 01:47:50;;;;;;;12.83;9.33;;;2.30;85.50;;;;;;5072013;28;20049;-75
2021/03/07 01:50:18;;;;;;;16.33;10.23;;;2.30;85.40;;;;;;5092379;28;20028;-75
2021/03/07 01:52:45;;;;;;;12.73;8.97;;;2.40;85.20;;;;;;5092991;28;20020;-75
2021/03/07 01:55:11;;;;;;;13.27;9.43;;;2.50;85.30;;;;;;5093142;28;20393;-77
2021/03/07 01:57:37;;;;;;;17.17;9.50;;;2.50;84.80;;;;;;5091192;28;20032;-76
2021/03/07 02:00:07;;;;;;;16.53;9.23;;;2.50;84.80;;;;;;5093660;28;20028;-76
2021/03/07 02:02:33;;;;;;;14.03;9.43;;;2.50;84.90;;;;;;5092197;28;20016;-74
2021/03/07 02:04:58;;;;;;;14.83;9.57;;;2.40;84.80;;;;;;5090689;28;20472;-75
2021/03/07 02:07:24;;;;;;;14.63;9.43;;;2.40;85.00;;;;;;5091845;28;20526;-76
2021/03/07 02:09:51;;;;;;;15.20;9.40;;;2.40;85.10;;;;;;5089777;28;20054;-75
2021/03/07 02:12:19;;;;;;;17.17;9.70;;;2.40;85.30;;;;;;5087885;28;20051;-74
2021/03/07 02:14:48;;;;;;;13.43;9.77;;;2.40;85.50;;;;;;5092580;28;20101;-76
2021/03/07 02:17:15;;;;;;;13.53;9.73;;;2.40;85.20;;;;;;5089151;28;20414;-75
2021/03/07 02:19:41;;;;;;;14.33;9.70;;;2.40;85.30;;;;;;5091869;28;20048;-75
2021/03/07 02:22:13;;;;;;;17.43;10.93;;;2.40;84.80;;;;;;5075208;28;20043;-76
2021/03/07 02:24:39;;;;;;;16.45;10.10;;;2.30;84.80;;;;;;5092957;28;20020;-76
2021/03/07 02:27:05;;;;;;;14.27;10.13;;;2.30;85.20;;;;;;5075794;28;20116;-76
2021/03/07 02:29:31;;;;;;;18.43;10.27;;;2.20;85.00;;;;;;5091441;28;20035;-76
2021/03/07 02:32:25;;;;;;;16.60;10.60;;;2.10;84.90;;;;;;5068624;28;20036;-75
2021/03/07 02:34:57;;;;;;;15.47;10.53;;;2.00;85.50;;;;;;5085157;28;20037;-77
2021/03/07 02:37:24;;;;;;;18.80;10.87;;;2.00;86.00;;;;;;5090194;28;20468;-76
2021/03/07 02:39:51;;;;;;;17.10;10.83;;;2.00;86.00;;;;;;5092534;28;20043;-76
2021/03/07 02:42:24;;;;;;;19.53;10.67;;;1.90;85.80;;;;;;5091877;28;20054;-75
2021/03/07 02:44:54;;;;;;;;;;;1.90;86.10;;;;;;5090775;28;20049;-74
2021/03/07 02:47:22;;;;;;;16.50;10.63;;;1.90;86.50;;;;;;5091836;28;19923;-74
2021/03/07 02:49:49;;;;;;;19.77;10.77;;;2.00;87.00;;;;;;5092141;28;20035;-75
2021/03/07 02:52:15;;;;;;;16.33;11.03;;;2.10;86.90;;;;;;5093278;28;20427;-74
2021/03/07 02:54:42;;;;;;;16.50;10.70;;;2.10;86.50;;;;;;5090737;28;20040;-74
2021/03/07 02:57:08;;;;;;;19.73;10.20;;;2.00;86.20;;;;;;5075109;28;20020;-74
2021/03/07 02:59:37;;;;;;;16.03;10.57;;;2.10;86.50;;;;;;5071157;28;20028;-74
2021/03/07 03:02:04;;;;;;;16.43;11.13;;;2.10;86.90;;;;;;5090364;28;20052;-74
2021/03/07 03:04:32;;;;;;;17.83;11.03;;;2.30;87.00;;;;;;5088870;28;20040;-76
2021/03/07 03:06:59;;;;;;;14.63;11.20;;;2.20;86.40;;;;;;5093324;28;20038;-74
2021/03/07 03:09:28;;;;;;;18.83;10.83;;;2.10;86.60;;;;;;5059020;28;20468;-74
2021/03/07 03:11:57;;;;;;;15.50;10.53;;;2.10;86.80;;;;;;5090969;28;20106;-75
2021/03/07 03:14:23;;;;;;;18.23;11.00;;;2.10;86.60;;;;;;5093689;28;20115;-74
2021/03/07 03:16:52;;;;;;;20.20;11.30;;;2.10;87.10;;;;;;5092868;28;20456;-74
2021/03/07 03:19:21;;;;;;;18.23;10.53;;;2.20;87.40;;;;;;5092199;28;20016;-73
2021/03/07 03:21:47;;;;;;;20.60;10.90;;;2.20;87.20;;;;;;5092607;28;20490;-74
2021/03/07 03:24:14;;;;;;;17.13;10.93;;;2.20;86.90;;;;;;5091710;28;20024;-74
2021/03/07 03:26:40;;;;;;;17.40;11.47;;;2.10;86.50;;;;;;5092372;28;20103;-75
2021/03/07 03:29:07;;;;;;;17.07;10.77;;;1.90;86.20;;;;;;5106883;28;20053;-75
2021/03/07 03:31:34;;;;;;;18.20;11.63;;;1.70;86.30;;;;;;5110021;28;20119;-74
2021/03/07 03:34:02;;;;;;;21.60;12.87;;;1.70;87.30;;;;;;5112864;28;20023;-74
2021/03/07 03:36:29;;;;;;;18.80;12.23;;;1.70;86.80;;;;;;5113344;28;20036;-75
2021/03/07 03:39:01;;;;;;;25.93;12.87;;;1.50;86.40;;;;;;5083007;28;20139;-74
2021/03/07 03:41:30;;;;;;;20.10;12.00;;;1.50;88.00;;;;;;5071573;28;20024;-74
2021/03/07 03:44:01;;;;;;;17.43;11.50;;;1.60;87.90;;;;;;5071741;28;20346;-75
2021/03/07 03:46:32;;;;;;;16.23;10.77;;;1.60;87.90;;;;;;5072229;28;20036;-74
2021/03/07 03:49:03;;;;;;;17.17;11.03;;;1.70;88.30;;;;;;5070565;28;20575;-74
2021/03/07 03:51:33;;;;;;;17.73;11.30;;;1.80;88.40;;;;;;5105186;28;20031;-74
2021/03/07 03:54:01;;;;;;;17.13;11.80;;;1.80;88.30;;;;;;5112558;28;20077;-74
2021/03/07 03:56:27;;;;;;;22.93;10.93;;;1.90;88.50;;;;;;5111795;28;20058;-73
2021/03/07 03:58:56;;;;;;;19.20;12.43;;;1.80;87.80;;;;;;5110978;28;20459;-74
2021/03/07 04:01:22;;;;;;;17.40;11.93;;;1.80;87.80;;;;;;5108800;28;20031;-74
2021/03/07 04:03:53;;;;;;;16.30;11.57;;;1.70;87.30;;;;;;5081881;28;20115;-74
2021/03/07 04:06:24;;;;;;;23.10;13.23;;;1.60;87.60;;;;;;5070456;28;20035;-74
2021/03/07 04:08:53;;;;;;;20.60;13.27;;;1.40;86.80;;;;;;5074331;28;20020;-74
2021/03/07 04:11:21;;;;;;;20.83;13.20;;;1.10;86.70;;;;;;5074621;28;20472;-73
2021/03/07 04:13:46;;;;;;;30.63;14.63;;;0.80;87.00;;;;;;5071226;28;20029;-74
2021/03/07 04:16:13;;;;;;;22.73;14.23;;;0.60;87.40;;;;;;5071526;28;20484;-74
2021/03/07 04:18:40;;;;;;;26.87;15.33;;;0.50;87.80;;;;;;5070505;28;20544;-74
2021/03/07 04:21:07;;;;;;;24.47;14.50;;;0.60;88.50;;;;;;5071660;28;20115;-73
2021/03/07 04:23:33;;;;;;;23.80;14.30;;;0.60;88.10;;;;;;5072123;28;20032;-74
2021/03/07 04:25:59;;;;;;;25.07;14.87;;;0.60;88.00;;;;;;5070722;28;20138;-75
2021/03/07 04:28:25;;;;;;;24.73;14.33;;;0.70;88.60;;;;;;5090948;28;20088;-74
2021/03/07 04:30:52;;;;;;;17.70;13.53;;;0.80;89.30;;;;;;5110177;28;20062;-75
2021/03/07 04:33:19;;;;;;;17.93;12.33;;;1.00;89.90;;;;;;5110952;28;20425;-74
2021/03/07 04:35:45;;;;;;;19.07;12.57;;;1.20;90.00;;;;;;5110241;28;20084;-76
2021/03/07 04:38:11;;;;;;;20.97;13.10;;;1.40;90.00;;;;;;5112371;28;20027;-75
2021/03/07 04:40:38;;;;;;;18.10;11.43;;;1.50;89.60;;;;;;5111059;28;20051;-74
2021/03/07 04:43:05;;;;;;;21.90;12.57;;;1.60;89.60;;;;;;5111245;28;20086;-74
2021/03/07 04:45:31;;;;;;;17.37;12.27;;;1.60;89.60;;;;;;5110445;28;20460;-74
2021/03/07 04:47:57;;;;;;;17.73;11.97;;;1.70;89.40;;;;;;5109865;28;20063;-73
2021/03/07 04:50:23;;;;;;;23.33;12.27;;;1.80;88.90;;;;;;5093958;28;20485;-73
2021/03/07 04:52:49;;;;;;;20.70;13.40;;;1.70;88.30;;;;;;5093095;28;20032;-76
2021/03/07 04:55:15;;;;;;;21.90;13.17;;;1.50;88.00;;;;;;5093760;28;20427;-75
2021/03/07 04:57:40;;;;;;;19.67;12.60;;;1.40;88.70;;;;;;5104435;28;20035;-74
2021/03/07 05:00:12;;;;;;;17.43;12.70;;;1.50;89.60;;;;;;5089207;28;20036;-74
2021/03/07 05:02:38;;;;;;;18.60;12.47;;;1.50;90.00;;;;;;5055041;28;20036;-74
2021/03/07 05:05:05;;;;;;;18.70;12.83;;;1.70;90.00;;;;;;5052707;28;20042;-73
2021/03/07 05:07:31;;;;;;;20.53;14.13;;;1.80;89.70;;;;;;5110418;28;20039;-75
2021/03/07 05:09:57;;;;;;;17.53;12.30;;;1.70;88.30;;;;;;5092663;28;20035;-74
2021/03/07 05:12:23;;;;;;;20.17;12.50;;;1.80;89.10;;;;;;5110465;28;20103;-74
2021/03/07 05:14:49;;;;;;;19.37;12.03;;;1.90;89.40;;;;;;5110376;28;20126;-75
2021/03/07 05:17:15;;;;;;;18.47;11.53;;;2.00;89.20;;;;;;5093088;28;20120;-75
2021/03/07 05:19:40;;;;;;;19.37;12.73;;;2.10;88.80;;;;;;5093900;28;20020;-75
2021/03/07 05:22:06;;;;;;;22.07;12.90;;;2.20;88.30;;;;;;5110661;28;20038;-74
2021/03/07 05:24:32;;;;;;;21.90;11.90;;;2.20;87.20;;;;;;5093765;28;20046;-74
2021/03/07 05:27:05;;;;;;;21.57;12.30;;;2.20;87.50;;;;;;5071782;28;20425;-74
2021/03/07 05:29:33;;;;;;;39.97;14.20;;;2.40;87.40;;;;;;5094208;28;20031;-74
2021/03/07 05:31:59;;;;;;;112.60;15.33;;;2.20;85.70;;;;;;5092670;28;20040;-74
2021/03/07 05:34:24;;;;;;;48.07;14.87;;;1.90;85.40;;;;;;5110350;28;20035;-74
2021/03/07 05:36:50;;;;;;;103.77;16.30;;;1.60;85.50;;;;;;5101164;28;20066;-75
2021/03/07 05:39:15;;;;;;;69.30;16.07;;;1.40;86.10;;;;;;5090649;28;20603;-75
2021/03/07 05:41:41;;;;;;;133.97;18.57;;;1.30;86.80;;;;;;5072905;28;20020;-75
2021/03/07 05:44:08;;;;;;;86.17;18.47;;;1.10;87.00;;;;;;5089087;28;20040;-75
2021/03/07 05:46:35;;;;;;;104.80;18.93;;;1.00;87.30;;;;;;5087730;28;20043;-74
2021/03/07 05:49:04;;;;;;;70.90;19.03;;;0.90;87.60;;;;;;5070290;28;20409;-74
2021/03/07 05:51:29;;;;;;;58.73;18.93;;;0.90;88.00;;;;;;5070700;28;20032;-75
2021/03/07 05:53:56;;;;;;;46.77;17.67;;;1.20;89.10;;;;;;5052695;28;20096;-75
2021/03/07 05:56:22;;;;;;;98.53;18.13;;;1.20;88.70;;;;;;5069245;28;20086;-75
2021/03/07 05:58:49;;;;;;;76.17;16.57;;;1.40;89.00;;;;;;5084412;28;20097;-74
2021/03/07 06:01:16;;;;;;;58.83;17.60;;;1.20;88.20;;;;;;5072126;28;20047;-74
2021/03/07 06:03:42;;;;;;;98.30;17.40;;;1.20;88.50;;;;;;5090914;28;20032;-74
2021/03/07 06:06:08;;;;;;;55.23;15.97;;;1.00;88.40;;;;;;5079596;28;20028;-74
2021/03/07 06:08:34;;;;;;;54.30;17.00;;;0.90;88.00;;;;;;5091106;28;20468;-74
2021/03/07 06:11:00;;;;;;;42.37;15.67;;;0.80;88.00;;;;;;5089694;28;20035;-75
2021/03/07 06:13:37;;;;;;;46.13;16.13;;;0.70;88.10;;;;;;5090492;28;20101;-74
2021/03/07 06:16:08;;;;;;;39.70;16.67;;;0.60;88.10;;;;;;5088807;28;20036;-74
2021/03/07 06:18:45;;;;;;;27.57;15.57;;;0.70;88.30;;;;;;5089656;28;20052;-74
2021/03/07 06:21:32;;;;;;;56.00;16.03;;;0.70;88.40;;;;;;5092162;28;20066;-74
2021/03/07 06:23:59;;;;;;;68.27;15.77;;;0.90;88.80;;;;;;5094451;28;20058;-75
2021/03/07 06:26:26;;;;;;;72.33;15.63;;;0.90;88.50;;;;;;5092993;28;20031;-73
2021/03/07 06:29:09;;;;;;;66.63;16.33;;;0.80;88.60;;;;;;5099620;28;20111;-74
2021/03/07 06:31:35;;;;;;;34.57;15.60;;;0.80;88.30;;;;;;5096373;28;20036;-74
2021/03/07 06:34:02;;;;;;;38.40;17.40;;;0.80;88.30;;;;;;5113013;28;20028;-75
2021/03/07 06:36:28;;;;;;;36.50;15.30;;;1.10;89.10;;;;;;5080170;28;20122;-74
2021/03/07 06:39:04;;;;;;;25.50;14.90;;;1.40;89.00;;;;;;5096897;28;20062;-73
2021/03/07 06:41:32;;;;;;;50.40;14.30;;;1.50;88.90;;;;;;5112975;28;20020;-73
2021/03/07 06:44:13;;;;;;;40.57;13.63;;;1.70;88.40;;;;;;5114787;28;20097;-74
2021/03/07 06:46:42;;;;;;;38.17;15.93;;;1.50;87.30;;;;;;5073529;28;20132;-74
2021/03/07 06:49:24;;;;;;;43.37;14.07;;;1.60;87.70;;;;;;5083392;28;20052;-74
2021/03/07 06:51:50;;;;;;;26.17;13.83;;;1.60;86.60;;;;;;5092893;28;20478;-74
2021/03/07 06:54:18;;;;;;;28.47;14.50;;;1.70;86.90;;;;;;5092073;28;20052;-74
2021/03/07 06:56:49;;;;;;;23.33;14.67;;;1.90;87.40;;;;;;5093788;28;20373;-74
2021/03/07 06:59:20;;;;;;;28.43;13.83;;;2.20;87.90;;;;;;5107632;28;20034;-74
2021/03/07 07:01:47;;;;;;;35.30;13.53;;;2.60;88.00;;;;;;5090185;28;20458;-75
2021/03/07 07:04:14;;;;;;;41.03;12.90;;;2.80;87.10;;;;;;5072613;28;20075;-75
2021/03/07 07:06:41;;;;;;;24.33;12.40;;;2.90;86.70;;;;;;5073941;28;20083;-75
2021/03/07 07:09:08;;;;;;;32.43;13.23;;;3.00;85.90;;;;;;5101293;28;20028;-76
2021/03/07 07:11:43;;;;;;;25.30;11.83;;;3.00;85.60;;;;;;5095395;28;20020;-75
2021/03/07 07:14:09;;;;;;;50.37;11.37;;;3.10;85.20;;;;;;5091491;28;20465;-75
2021/03/07 07:16:35;;;;;;;64.77;12.40;;;3.20;84.90;;;;;;5075556;28;20032;-74
2021/03/07 07:19:02;;;;;;;47.10;11.17;;;3.00;83.10;;;;;;5092489;28;20472;-75
2021/03/07 07:21:28;;;;;;;24.83;11.47;;;2.40;83.10;;;;;;5094384;28;20028;-74
2021/03/07 07:23:54;;;;;;;35.03;12.57;;;2.40;84.30;;;;;;5099959;28;20024;-75
2021/03/07 07:26:20;;;;;;;50.50;12.73;;;2.60;84.90;;;;;;5092208;28;20029;-74
2021/03/07 07:28:45;;;;;;;35.23;13.17;;;2.70;83.90;;;;;;5086837;28;20051;-74
2021/03/07 07:31:16;;;;;;;20.17;11.50;;;2.70;83.70;;;;;;5086405;28;20086;-74
2021/03/07 07:34:01;;;;;;;38.23;12.53;;;2.70;83.30;;;;;;5084699;28;20092;-74
2021/03/07 07:36:41;;;;;;;39.80;12.47;;;2.70;82.80;;;;;;5085204;28;20040;-77
2021/03/07 07:39:10;;;;;;;43.30;13.67;;;2.80;83.60;;;;;;5083156;28;20749;-77
2021/03/07 07:41:38;;;;;;;66.50;12.97;;;2.90;83.00;;;;;;5064871;28;20032;-76
2021/03/07 07:44:07;;;;;;;88.70;13.50;;;3.00;82.60;;;;;;5059565;28;20380;-76
2021/03/07 07:46:34;;;;;;;37.87;12.27;;;2.80;81.80;;;;;;5073304;28;20134;-74
2021/03/07 07:49:00;;;;;;;78.90;13.53;;;2.50;81.70;;;;;;5070684;28;20028;-77
2021/03/07 07:51:29;;;;;;;78.00;13.93;;;2.50;82.20;;;;;;5072032;28;20040;-74
2021/03/07 07:53:55;;;;;;;22.37;12.27;;;2.60;82.70;;;;;;5076081;28;20021;-74
2021/03/07 07:56:39;;;;;;;22.77;13.40;;;2.50;82.50;;;;;;5072753;28;20067;-74
2021/03/07 07:59:06;;;;;;;28.87;14.83;;;3.00;84.00;;;;;;5078128;28;20032;-75
2021/03/07 08:01:53;;;;;;;34.40;12.03;;;3.50;83.80;;;;;;5076129;28;20331;-74
2021/03/07 08:04:28;;;;;;;33.93;16.20;;;3.50;80.90;;;;;;5071310;28;20060;-74
2021/03/07 08:06:55;;;;;;;57.13;12.93;;;3.80;81.80;;;;;;5087756;28;20108;-74
2021/03/07 08:09:48;;;;;;;60.13;14.43;;;3.90;80.20;;;;;;5088082;28;20032;-73
2021/03/07 08:12:46;;;;;;;26.90;13.13;;;3.90;80.90;;;;;;5076824;28;20051;-74
2021/03/07 08:15:27;;;;;;;89.67;15.17;;;3.70;80.30;;;;;;5071543;28;20060;-74
2021/03/07 08:17:54;;;;;;;40.43;16.13;;;3.70;80.70;;;;;;5088219;28;20364;-73
2021/03/07 08:20:38;;;;;;;65.23;17.17;;;3.80;80.30;;;;;;5078551;28;20107;-72
2021/03/07 08:23:05;;;;;;;44.83;18.80;;;3.80;80.20;;;;;;5108114;28;20514;-73
2021/03/07 08:25:49;;;;;;;66.20;17.23;;;4.00;81.10;;;;;;5074669;28;20020;-74
2021/03/07 08:28:29;;;;;;;56.53;16.60;;;4.20;80.00;;;;;;5071409;28;20024;-76
2021/03/07 08:31:15;;;;;;;62.27;19.57;;;4.10;79.10;;;;;;5095566;28;20193;-74
2021/03/07 08:33:42;;;;;;;43.13;16.63;;;4.40;80.00;;;;;;5084751;28;20028;-74
2021/03/07 08:36:18;;;;;;;51.83;16.53;;;4.20;79.20;;;;;;5048941;28;20055;-74
2021/03/07 08:38:50;;;;;;;38.30;19.37;;;4.10;79.00;;;;;;5091722;28;20024;-73
2021/03/07 08:41:27;;;;;;;38.60;17.07;;;4.40;79.80;;;;;;5071555;28;20484;-76
2021/03/07 08:43:57;;;;;;;28.33;19.37;;;4.80;78.80;;;;;;5090835;28;20321;-75
2021/03/07 08:46:43;;;;;;;33.70;17.60;;;4.70;78.80;;;;;;5077845;28;20032;-74
2021/03/07 08:49:19;;;;;;;31.07;18.13;;;5.10;78.90;;;;;;5080434;28;20036;-74
2021/03/07 08:51:49;;;;;;;26.17;17.03;;;5.40;77.90;;;;;;5093364;28;20098;-75
2021/03/07 08:54:20;;;;;;;36.10;20.70;;;5.70;77.00;;;;;;5111285;28;20027;-74
2021/03/07 08:56:46;;;;;;;38.50;26.20;;;6.00;76.50;;;;;;5106879;28;20035;-75
2021/03/07 08:59:12;;;;;;;25.57;17.50;;;6.60;77.10;;;;;;5072744;28;20061;-76
2021/03/07 09:01:39;;;;;;;32.57;21.33;;;6.90;74.50;;;;;;5061555;28;20028;-74
2021/03/07 09:04:08;;;;;;;21.30;14.63;;;7.30;74.40;;;;;;5077667;28;20020;-75
2021/03/07 09:06:36;;;;;;;23.47;16.57;;;7.50;71.00;;;;;;5090072;28;20560;-73
2021/03/07 09:09:15;;;;;;;26.23;17.00;;;7.30;70.00;;;;;;5074204;28;20024;-75
2021/03/07 09:11:55;;;;;;;24.50;18.67;;;7.40;70.50;;;;;;5077947;28;20111;-74
2021/03/07 09:14:34;;;;;;;23.87;17.37;;;7.50;70.00;;;;;;5085808;28;20123;-77
2021/03/07 09:17:03;;;;;;;28.20;18.90;;;7.30;70.10;;;;;;5077664;28;20031;-75
2021/03/07 09:19:32;;;;;;;22.93;17.17;;;7.20;69.90;;;;;;5081913;28;20025;-75
2021/03/07 09:22:20;;;;;;;29.27;20.70;;;6.90;70.10;;;;;;5086885;28;20024;-75
2021/03/07 09:24:54;;;;;;;28.57;20.43;;;6.60;71.30;;;;;;5084596;28;20046;-75
2021/03/07 09:27:21;;;;;;;38.50;26.50;;;6.80;72.00;;;;;;5087296;28;20057;-75
2021/03/07 09:29:55;;;;;;;33.63;22.53;;;7.10;72.50;;;;;;5079671;28;20028;-74
2021/03/07 09:32:27;;;;;;;45.27;29.77;;;7.80;71.10;;;;;;5067586;28;20432;-75
2021/03/07 09:34:54;;;;;;;33.90;22.73;;;8.90;70.60;;;;;;5088098;28;20036;-74
2021/03/07 09:37:20;;;;;;;29.77;24.57;;;9.80;66.50;;;;;;5089788;28;20028;-73
2021/03/07 09:39:47;;;;;;;34.03;25.77;;;10.10;64.20;;;;;;5069688;28;20157;-75
2021/03/07 09:42:13;;;;;;;34.50;25.17;;;10.30;63.40;;;;;;5073130;28;20031;-74
2021/03/07 09:44:41;;;;;;;27.77;21.10;;;10.40;62.80;;;;;;5060358;28;20024;-75
2021/03/07 09:47:07;;;;;;;26.07;20.23;;;10.60;62.30;;;;;;5080411;28;20540;-74
2021/03/07 09:49:33;;;;;;;25.93;20.27;;;10.90;62.30;;;;;;5075980;28;20115;-74
2021/03/07 09:51:59;;;;;;;24.63;17.87;;;10.80;61.10;;;;;;5068602;28;20111;-74
2021/03/07 09:54:26;;;;;;;26.00;18.03;;;10.80;61.10;;;;;;5037445;28;20568;-75
2021/03/07 09:56:52;;;;;;;19.63;15.17;;;10.70;61.40;;;;;;5072287;28;20443;-75
2021/03/07 09:59:27;;;;;;;20.20;15.70;;;10.90;60.80;;;;;;5078102;28;20476;-74
2021/03/07 10:02:01;;;;;;;23.23;17.17;;;11.30;60.90;;;;;;5085706;28;20027;-74
2021/03/07 10:04:36;;;;;;;14.90;12.87;;;12.10;60.90;;;;;;5093875;28;20491;-75
2021/03/07 10:07:25;;;;;;;25.05;19.17;;;12.50;57.00;;;;;;5094673;28;20056;-75
2021/03/07 10:10:15;;;;;;;19.63;15.52;;;12.80;59.70;;;;;;5077734;28;20016;-75
2021/03/07 10:12:58;;;;;;;23.45;14.23;;;13.50;56.50;;;;;;5088322;28;20033;-76
2021/03/07 10:15:24;;;;;;;;;;;13.50;54.80;;;;;;5077809;28;20029;-75
2021/03/07 10:17:50;;;;;;;16.23;12.23;;;13.40;54.20;;;;;;5091016;28;19911;-75
2021/03/07 10:20:17;;;;;;;12.95;10.88;;;13.10;53.50;;;;;;5074614;28;20036;-75
2021/03/07 10:22:45;;;;;;;14.02;10.60;;;12.80;54.10;;;;;;5091662;28;20028;-74
2021/03/07 10:25:27;;;;;;;14.35;10.02;;;13.20;53.90;;;;;;5075183;28;20017;-75
2021/03/07 10:28:01;;;;;;;12.77;9.40;;;12.80;53.10;;;;;;5112338;28;20047;-74
2021/03/07 10:30:45;;;;;;;16.88;11.80;;;12.90;54.40;;;;;;5072669;28;20048;-75
2021/03/07 10:33:18;;;;;;;9.32;8.32;;;12.70;53.00;;;;;;5072465;28;20376;-75
2021/03/07 10:36:13;;;;;;;11.48;7.85;;;12.20;52.90;;;;;;5073661;28;20036;-75
2021/03/07 10:38:41;;;;;;;7.55;6.43;;;11.80;53.40;;;;;;5092362;28;20032;-75
2021/03/07 10:41:33;;;;;;;19.05;12.85;;;11.70;52.90;;;;;;5085563;28;20029;-75
2021/03/07 10:44:05;;;;;;;7.10;4.93;;;12.50;54.80;;;;;;5060369;28;20028;-76
2021/03/07 10:46:44;;;;;;;10.23;7.60;;;13.00;49.10;;;;;;5086516;28;20032;-73
2021/03/07 10:49:11;;;;;;;10.27;6.63;;;12.90;51.00;;;;;;5076721;28;20117;-75
2021/03/07 10:51:38;;;;;;;5.97;5.10;;;12.70;49.30;;;;;;5075936;28;20028;-76
2021/03/07 10:54:04;;;;;;;16.07;12.00;;;12.20;45.30;;;;;;5074689;28;20056;-75
2021/03/07 10:56:34;;;;;;;7.23;4.70;;;11.60;48.60;;;;;;5092924;28;20039;-75
2021/03/07 10:59:01;;;;;;;15.10;10.10;;;11.90;46.10;;;;;;5091983;28;20091;-74
2021/03/07 11:01:27;;;;;;;10.43;7.47;;;12.20;47.80;;;;;;5070801;28;20034;-76
2021/03/07 11:03:53;;;;;;;14.67;10.93;;;11.80;46.30;;;;;;5072820;28;20036;-74
2021/03/07 11:06:19;;;;;;;7.13;5.37;;;12.00;48.90;;;;;;5071615;28;20040;-75
2021/03/07 11:08:47;;;;;;;6.70;4.37;;;12.20;45.60;;;;;;5084180;28;20032;-74
2021/03/07 11:11:12;;;;;;;10.17;7.70;;;12.00;45.10;;;;;;5093355;28;20032;-75
2021/03/07 11:13:38;;;;;;;11.57;8.40;;;12.00;47.60;;;;;;5089193;28;20539;-76
2021/03/07 11:16:04;;;;;;;14.67;10.33;;;12.70;47.50;;;;;;5089701;28;20396;-76
2021/03/07 11:18:30;;;;;;;15.23;11.17;;;13.00;46.90;;;;;;5088584;28;20065;-75
2021/03/07 11:20:56;;;;;;;12.20;8.40;;;13.00;47.00;;;;;;5073015;28;20369;-76
2021/03/07 11:23:21;;;;;;;7.73;5.73;;;12.90;45.80;;;;;;5071467;28;20044;-74
2021/03/07 11:25:47;;;;;;;7.50;5.10;;;12.60;44.40;;;;;;5053509;28;20037;-74
2021/03/07 11:28:13;;;;;;;10.23;6.77;;;12.30;45.10;;;;;;5064040;28;20173;-74
2021/03/07 11:30:39;;;;;;;11.53;9.00;;;12.50;45.70;;;;;;5092038;28;20040;-74
2021/03/07 11:33:05;;;;;;;10.73;7.67;;;12.40;46.50;;;;;;5050270;28;21073;-75
2021/03/07 11:35:31;;;;;;;11.70;8.73;;;12.20;45.10;;;;;;5059199;28;20044;-76
2021/03/07 11:37:58;;;;;;;18.17;10.10;;;12.20;45.50;;;;;;5079181;28;20027;-74
2021/03/07 11:40:25;;;;;;;9.73;5.80;;;11.70;45.40;;;;;;5078775;28;20562;-75
2021/03/07 11:42:51;;;;;;;7.57;6.67;;;11.30;44.80;;;;;;5072042;28;20039;-75
2021/03/07 11:45:17;;;;;;;22.70;13.60;;;11.00;44.50;;;;;;5101572;28;20048;-75
2021/03/07 11:47:43;;;;;;;21.97;13.97;;;10.90;47.50;;;;;;5111697;28;20175;-78
2021/03/07 11:50:10;;;;;;;16.57;9.77;;;11.60;48.60;;;;;;5077608;28;20090;-77
2021/03/07 11:52:36;;;;;;;10.20;5.90;;;12.10;45.60;;;;;;5091396;28;20040;-75
2021/03/07 11:55:02;;;;;;;9.53;7.33;;;12.20;43.40;;;;;;5068694;28;20062;-76
2021/03/07 11:57:28;;;;;;;9.50;6.40;;;12.30;44.70;;;;;;5071041;28;20024;-74
2021/03/07 11:59:54;;;;;;;6.17;5.00;;;12.60;44.80;;;;;;5054009;28;20044;-75
2021/03/07 12:02:20;;;;;;;9.73;7.37;;;12.70;43.80;;;;;;5059826;28;20452;-75
2021/03/07 12:04:45;;;;;;;8.63;6.77;;;12.70;44.50;;;;;;5057228;28;20052;-77
2021/03/07 12:07:11;;;;;;;12.30;8.80;;;12.80;43.60;;;;;;5053616;28;20183;-76
2021/03/07 12:09:37;;;;;;;8.63;6.47;;;12.90;45.40;;;;;;5057322;28;20384;-75
2021/03/07 12:12:03;;;;;;;9.73;6.70;;;12.90;44.20;;;;;;5090041;28;20529;-76
2021/03/07 12:14:28;;;;;;;10.63;6.30;;;12.80;44.00;;;;;;5079562;28;20036;-76
2021/03/07 12:16:54;;;;;;;10.80;7.03;;;12.80;43.00;;;;;;5068957;28;20159;-76
2021/03/07 12:19:21;;;;;;;8.20;5.60;;;12.80;43.40;;;;;;5073902;28;20381;-75
2021/03/07 12:21:46;;;;;;;7.93;5.90;;;12.80;42.50;;;;;;5072016;28;20020;-75
2021/03/07 12:24:12;;;;;;;9.53;7.30;;;12.90;43.10;;;;;;5089794;28;20230;-76
2021/03/07 12:26:38;;;;;;;4.83;3.70;;;13.00;43.80;;;;;;5073849;28;20035;-75
2021/03/07 12:29:05;;;;;;;7.40;4.20;;;13.00;42.60;;;;;;5086000;28;20040;-75
2021/03/07 12:31:31;;;;;;;11.77;8.10;;;12.80;42.90;;;;;;5075187;28;20035;-76
2021/03/07 12:33:56;;;;;;;13.23;8.67;;;12.30;43.60;;;;;;5073030;28;20487;-75
2021/03/07 12:36:22;;;;;;;10.57;7.13;;;12.30;45.10;;;;;;5069658;28;20044;-74
2021/03/07 12:38:47;;;;;;;4.93;4.43;;;12.10;44.40;;;;;;5064095;28;20491;-75
2021/03/07 12:41:13;;;;;;;8.60;6.60;;;12.00;43.20;;;;;;5069549;28;20025;-75
2021/03/07 12:43:39;;;;;;;10.80;7.93;;;11.40;43.70;;;;;;5056888;28;20036;-74
2021/03/07 12:46:04;;;;;;;5.73;4.57;;;11.30;46.50;;;;;;5089800;28;20035;-74